Time;durP1;ratioP1;P1;durP2;ratioP2;P2;SDS_P1;SDS_P2;PMS_P1;PMS_P2;Temp;Humidity;BMP_temperature;BMP_pressure;BME280_temperature;BME280_humidity;BME280_pressure;Samples;Min_cycle;Max_cycle;Signal;HPM_P1;HPM_P2
2023/06/25 00:01:42;;;;;;;10.35;8.40;;;;;;;;;;5059128;28;20221;-83
2023/06/25 00:04:08;;;;;;;8.68;7.88;;;;;;;;;;5059279;28;20179;-83
2023/06/25 00:06:34;;;;;;;9.70;8.60;;;;;;;;;;5058908;28;20188;-83
2023/06/25 00:09:00;;;;;;;10.13;8.57;;;;;;;;;;5081665;28;20225;-83
2023/06/25 00:11:26;;;;;;;9.63;8.73;;;;;;;;;;5098765;28;20193;-83
2023/06/25 00:13:55;;;;;;;10.02;8.35;;;;;;;;;;5099274;28;20174;-83
2023/06/25 00:16:20;;;;;;;9.57;8.57;;;;;;;;;;5099009;28;20268;-83
2023/06/25 00:18:47;;;;;;;11.35;9.27;;;;;;;;;;5082452;28;20220;-83
2023/06/25 00:21:13;;;;;;;11.43;9.23;;;;;;;;;;5083119;28;20274;-83
2023/06/25 00:23:39;;;;;;;10.10;8.83;;;;;;;;;;5062140;28;20223;-83
2023/06/25 00:26:05;;;;;;;11.52;10.38;;;;;;;;;;5062079;28;20198;-83
2023/06/25 00:28:31;;;;;;;12.80;11.00;;;;;;;;;;5078231;28;20325;-83
2023/06/25 00:30:57;;;;;;;11.88;10.68;;;;;;;;;;5075030;28;20197;-83
2023/06/25 00:33:23;;;;;;;11.90;10.70;;;;;;;;;;5081890;28;20178;-83
2023/06/25 00:35:55;;;;;;;15.00;11.32;;;;;;;;;;5098626;28;20174;-83
2023/06/25 00:38:21;;;;;;;12.63;11.40;;;;;;;;;;5098653;28;20234;-83
2023/06/25 00:40:47;;;;;;;12.20;11.00;;;;;;;;;;5077973;28;20186;-83
2023/06/25 00:43:15;;;;;;;14.23;11.73;;;;;;;;;;5078267;28;20205;-83
2023/06/25 00:45:41;;;;;;;11.75;10.55;;;;;;;;;;5078216;28;20186;-83
2023/06/25 00:48:07;;;;;;;13.80;12.17;;;;;;;;;;5095332;28;20220;-83
2023/06/25 00:50:33;;;;;;;13.73;12.20;;;;;;;;;;5086455;28;20241;-83
2023/06/25 00:53:01;;;;;;;13.88;12.00;;;;;;;;;;5098590;28;20177;-82
2023/06/25 00:55:28;;;;;;;13.43;12.00;;;;;;;;;;5081751;28;20260;-83
2023/06/25 00:57:55;;;;;;;13.35;11.23;;;;;;;;;;5081736;28;20178;-83
2023/06/25 01:00:25;;;;;;;15.23;11.90;;;;;;;;;;5097864;28;20242;-83
2023/06/25 01:02:52;;;;;;;14.25;12.35;;;;;;;;;;5098059;28;20170;-83
2023/06/25 01:05:45;;;;;;;14.10;11.50;;;;;;;;;;5098246;28;20213;-83
2023/06/25 01:08:11;;;;;;;13.95;12.15;;;;;;;;;;5063654;28;20222;-82
2023/06/25 01:10:41;;;;;;;14.10;12.60;;;;;;;;;;5093762;28;20222;-83
2023/06/25 01:13:07;;;;;;;13.27;11.90;;;;;;;;;;5094641;28;20263;-82
2023/06/25 01:15:33;;;;;;;13.10;11.70;;;;;;;;;;5094570;28;20178;-83
2023/06/25 01:17:59;;;;;;;14.73;12.43;;;;;;;;;;5094200;28;20179;-83
2023/06/25 01:20:28;;;;;;;13.90;12.37;;;;;;;;;;5077244;28;20212;-83
2023/06/25 01:22:58;;;;;;;14.18;12.77;;;;;;;;;;5094448;28;20208;-82
2023/06/25 01:25:24;;;;;;;14.70;13.07;;;;;;;;;;5077721;28;20187;-82
2023/06/25 01:27:50;;;;;;;14.45;12.95;;;;;;;;;;5095388;28;20193;-82
2023/06/25 01:30:17;;;;;;;14.97;12.37;;;;;;;;;;5076138;28;20215;-82
2023/06/25 01:32:44;;;;;;;15.68;12.82;;;;;;;;;;5077408;28;20185;-83
2023/06/25 01:35:11;;;;;;;14.57;12.23;;;;;;;;;;5093953;28;20175;-82
2023/06/25 01:37:37;;;;;;;13.33;12.13;;;;;;;;;;5093359;28;20191;-83
2023/06/25 01:40:03;;;;;;;14.30;12.80;;;;;;;;;;5077436;28;20190;-82
2023/06/25 01:42:29;;;;;;;14.43;12.57;;;;;;;;;;5077608;28;20235;-83
2023/06/25 01:44:55;;;;;;;13.90;12.50;;;;;;;;;;5093930;28;20269;-82
2023/06/25 01:47:21;;;;;;;14.60;12.60;;;;;;;;;;5076444;28;20216;-82
2023/06/25 01:49:47;;;;;;;14.43;12.60;;;;;;;;;;5072436;28;20214;-82
2023/06/25 01:52:14;;;;;;;13.50;12.23;;;;;;;;;;5056903;28;20175;-82
2023/06/25 01:54:40;;;;;;;16.13;13.73;;;;;;;;;;5090541;28;20175;-82
2023/06/25 01:57:06;;;;;;;16.17;12.80;;;;;;;;;;5057033;28;20259;-83
2023/06/25 01:59:34;;;;;;;13.73;12.30;;;;;;;;;;5090530;28;20191;-82
2023/06/25 02:02:01;;;;;;;14.80;13.20;;;;;;;;;;5070185;28;20232;-83
2023/06/25 02:04:28;;;;;;;15.40;13.70;;;;;;;;;;5094051;28;20183;-83
2023/06/25 02:06:54;;;;;;;15.00;13.40;;;;;;;;;;5077003;28;20202;-83
2023/06/25 02:09:20;;;;;;;15.87;14.17;;;;;;;;;;5093499;28;20234;-83
2023/06/25 02:11:46;;;;;;;17.50;14.47;;;;;;;;;;5074285;28;20189;-83
2023/06/25 02:14:12;;;;;;;15.13;13.53;;;;;;;;;;5076527;28;20183;-82
2023/06/25 02:16:38;;;;;;;15.53;14.00;;;;;;;;;;5093149;28;20204;-82
2023/06/25 02:19:04;;;;;;;15.40;13.27;;;;;;;;;;5076615;28;20187;-83
2023/06/25 02:21:30;;;;;;;14.80;13.30;;;;;;;;;;5092161;28;20236;-83
2023/06/25 02:23:56;;;;;;;15.23;13.70;;;;;;;;;;5093542;28;20273;-83
2023/06/25 02:26:22;;;;;;;16.27;13.73;;;;;;;;;;5076570;28;20182;-83
2023/06/25 02:28:48;;;;;;;19.70;13.87;;;;;;;;;;5076278;28;20286;-83
2023/06/25 02:31:16;;;;;;;15.63;13.80;;;;;;;;;;5076795;28;20228;-83
2023/06/25 02:33:42;;;;;;;16.00;14.40;;;;;;;;;;5092522;28;20186;-83
2023/06/25 02:36:08;;;;;;;15.50;13.93;;;;;;;;;;5076752;28;20190;-83
2023/06/25 02:38:34;;;;;;;16.57;14.13;;;;;;;;;;5076495;28;20250;-83
2023/06/25 02:41:00;;;;;;;15.23;13.53;;;;;;;;;;5065708;28;20247;-83
2023/06/25 02:43:26;;;;;;;15.57;13.83;;;;;;;;;;5092469;28;20188;-82
2023/06/25 02:45:52;;;;;;;16.63;14.93;;;;;;;;;;5092889;28;20196;-82
2023/06/25 02:48:18;;;;;;;16.53;14.63;;;;;;;;;;5076283;28;20175;-83
2023/06/25 02:50:44;;;;;;;17.33;15.13;;;;;;;;;;5076007;28;20210;-83
2023/06/25 02:53:10;;;;;;;17.47;14.70;;;;;;;;;;5075673;28;20186;-82
2023/06/25 02:55:36;;;;;;;16.10;14.40;;;;;;;;;;5072545;28;20274;-82
2023/06/25 02:58:02;;;;;;;16.37;14.67;;;;;;;;;;5056081;28;20180;-83
2023/06/25 03:00:28;;;;;;;15.80;14.20;;;;;;;;;;5069105;28;20191;-83
2023/06/25 03:02:54;;;;;;;15.83;14.30;;;;;;;;;;5075400;28;20194;-83
2023/06/25 03:05:20;;;;;;;17.13;15.37;;;;;;;;;;5075968;28;20204;-82
2023/06/25 03:07:57;;;;;;;16.00;13.97;;;;;;;;;;5077994;28;20225;-82
2023/06/25 03:10:28;;;;;;;16.93;15.23;;;;;;;;;;5087270;28;20210;-82
2023/06/25 03:12:54;;;;;;;18.23;14.70;;;;;;;;;;5076348;28;20178;-82
2023/06/25 03:15:20;;;;;;;19.20;14.87;;;;;;;;;;5063341;28;20227;-82
2023/06/25 03:17:46;;;;;;;16.60;14.47;;;;;;;;;;5081760;28;20269;-82
2023/06/25 03:20:13;;;;;;;16.57;14.97;;;;;;;;;;5100032;28;20181;-82
2023/06/25 03:22:39;;;;;;;16.23;14.53;;;;;;;;;;5083552;28;20297;-82
2023/06/25 03:25:05;;;;;;;17.13;15.37;;;;;;;;;;5100331;28;20227;-82
2023/06/25 03:27:32;;;;;;;16.53;14.63;;;;;;;;;;5069076;28;20195;-82
2023/06/25 03:29:58;;;;;;;16.13;14.53;;;;;;;;;;5099820;28;20239;-82
2023/06/25 03:32:24;;;;;;;17.93;15.57;;;;;;;;;;5083352;28;20185;-82
2023/06/25 03:34:51;;;;;;;17.73;15.20;;;;;;;;;;5082893;28;20190;-82
2023/06/25 03:37:17;;;;;;;17.10;15.30;;;;;;;;;;5099873;28;20223;-82
2023/06/25 03:39:43;;;;;;;15.90;14.30;;;;;;;;;;5098690;28;20201;-82
2023/06/25 03:42:09;;;;;;;17.23;14.97;;;;;;;;;;5099759;28;20335;-82
2023/06/25 03:44:35;;;;;;;19.00;15.67;;;;;;;;;;5082988;28;20245;-82
2023/06/25 03:47:01;;;;;;;16.43;14.73;;;;;;;;;;5082914;28;20281;-82
2023/06/25 03:49:27;;;;;;;17.27;15.40;;;;;;;;;;5081998;28;20217;-82
2023/06/25 03:51:53;;;;;;;16.53;14.87;;;;;;;;;;5082759;28;20208;-82
2023/06/25 03:54:19;;;;;;;15.43;13.87;;;;;;;;;;5099613;28;20178;-82
2023/06/25 03:56:45;;;;;;;16.83;15.03;;;;;;;;;;5082727;28;20214;-81
2023/06/25 03:59:11;;;;;;;16.50;14.80;;;;;;;;;;5078453;28;20226;-81
2023/06/25 04:01:37;;;;;;;18.47;15.67;;;;;;;;;;5095973;28;20278;-81
2023/06/25 04:04:03;;;;;;;19.03;15.80;;;;;;;;;;5096044;28;20205;-81
2023/06/25 04:06:29;;;;;;;18.20;16.10;;;;;;;;;;5099070;28;20200;-81
2023/06/25 04:08:55;;;;;;;17.53;15.83;;;;;;;;;;5082509;28;20276;-81
2023/06/25 04:11:21;;;;;;;17.57;15.77;;;;;;;;;;5078293;28;20183;-81
2023/06/25 04:13:47;;;;;;;17.47;15.67;;;;;;;;;;5078664;28;20266;-81
2023/06/25 04:16:13;;;;;;;18.20;16.10;;;;;;;;;;5078745;28;20163;-81
2023/06/25 04:18:42;;;;;;;17.43;15.57;;;;;;;;;;5095842;28;20182;-81
2023/06/25 04:21:08;;;;;;;17.97;15.60;;;;;;;;;;5078545;28;20281;-81
2023/06/25 04:23:34;;;;;;;20.13;16.80;;;;;;;;;;5062128;28;20199;-81
2023/06/25 04:26:00;;;;;;;17.50;15.80;;;;;;;;;;5077579;28;20175;-81
2023/06/25 04:28:26;;;;;;;18.97;16.37;;;;;;;;;;5067640;28;20190;-81
2023/06/25 04:30:52;;;;;;;18.33;16.03;;;;;;;;;;5087643;27;20205;-81
2023/06/25 04:33:20;;;;;;;19.37;16.17;;;;;;;;;;5113635;28;20182;-82
2023/06/25 04:35:46;;;;;;;18.43;16.50;;;;;;;;;;5095754;28;20170;-81
2023/06/25 04:38:12;;;;;;;17.27;15.57;;;;;;;;;;5078009;28;20182;-81
2023/06/25 04:40:38;;;;;;;18.17;16.20;;;;;;;;;;5096546;28;20171;-81
2023/06/25 04:43:04;;;;;;;17.33;15.53;;;;;;;;;;5098649;28;20181;-81
2023/06/25 04:45:30;;;;;;;18.40;15.77;;;;;;;;;;5079718;28;20187;-81
2023/06/25 04:47:56;;;;;;;19.77;16.00;;;;;;;;;;5081101;28;20190;-81
2023/06/25 04:50:22;;;;;;;19.10;17.20;;;;;;;;;;5081609;28;20209;-81
2023/06/25 04:52:48;;;;;;;17.90;16.10;;;;;;;;;;5079968;28;20175;-81
2023/06/25 04:55:14;;;;;;;17.80;16.00;;;;;;;;;;5069772;28;20261;-81
2023/06/25 04:57:40;;;;;;;18.23;16.40;;;;;;;;;;5088110;28;20178;-81
2023/06/25 05:00:07;;;;;;;17.43;15.57;;;;;;;;;;5071064;28;20185;-81
2023/06/25 05:02:33;;;;;;;18.97;15.50;;;;;;;;;;5088727;28;20241;-81
2023/06/25 05:04:59;;;;;;;18.80;16.97;;;;;;;;;;5086576;28;20178;-81
2023/06/25 05:07:25;;;;;;;18.00;16.07;;;;;;;;;;5071759;28;20328;-81
2023/06/25 05:09:51;;;;;;;18.40;16.37;;;;;;;;;;5086637;28;20254;-81
2023/06/25 05:12:17;;;;;;;19.73;16.37;;;;;;;;;;5071907;28;20181;-81
2023/06/25 05:14:43;;;;;;;19.33;17.37;;;;;;;;;;5088477;28;20170;-81
2023/06/25 05:17:09;;;;;;;19.77;17.37;;;;;;;;;;5086433;28;20207;-81
2023/06/25 05:19:35;;;;;;;18.53;16.63;;;;;;;;;;5071547;28;20178;-81
2023/06/25 05:22:01;;;;;;;17.97;16.10;;;;;;;;;;5084529;28;20210;-81
2023/06/25 05:24:28;;;;;;;21.43;17.33;;;;;;;;;;5071709;28;20255;-81
2023/06/25 05:26:55;;;;;;;18.63;16.17;;;;;;;;;;5088128;28;20204;-81
2023/06/25 05:29:21;;;;;;;18.90;17.00;;;;;;;;;;5069977;28;20194;-81
2023/06/25 05:31:47;;;;;;;17.27;15.53;;;;;;;;;;5087259;28;20180;-81
2023/06/25 05:34:13;;;;;;;19.03;16.80;;;;;;;;;;5070484;28;20185;-81
2023/06/25 05:36:39;;;;;;;18.87;16.87;;;;;;;;;;5069295;28;20194;-82
2023/06/25 05:39:05;;;;;;;18.10;16.07;;;;;;;;;;5086344;28;20178;-82
2023/06/25 05:41:31;;;;;;;18.93;16.90;;;;;;;;;;5069902;28;20207;-82
2023/06/25 05:43:57;;;;;;;17.93;16.00;;;;;;;;;;5069914;28;20222;-82
2023/06/25 05:46:23;;;;;;;17.90;16.07;;;;;;;;;;5086725;28;20217;-82
2023/06/25 05:48:49;;;;;;;17.23;15.53;;;;;;;;;;5070576;28;20174;-82
2023/06/25 05:51:15;;;;;;;17.97;15.73;;;;;;;;;;5069779;28;20184;-82
2023/06/25 05:53:43;;;;;;;18.80;16.97;;;;;;;;;;5085580;28;20185;-81
2023/06/25 05:56:09;;;;;;;17.80;16.10;;;;;;;;;;5071190;28;20186;-82
2023/06/25 05:58:36;;;;;;;19.20;15.70;;;;;;;;;;5088648;28;20182;-82
2023/06/25 06:01:03;;;;;;;18.27;16.47;;;;;;;;;;5104209;28;20178;-82
2023/06/25 06:03:29;;;;;;;20.63;14.83;;;;;;;;;;5088479;28;20174;-82
2023/06/25 06:05:56;;;;;;;17.40;15.60;;;;;;;;;;5087461;28;20174;-82
2023/06/25 06:08:22;;;;;;;16.53;14.83;;;;;;;;;;5082090;28;20222;-82
2023/06/25 06:10:48;;;;;;;17.83;16.00;;;;;;;;;;5082945;28;20209;-82
2023/06/25 06:13:15;;;;;;;18.30;16.40;;;;;;;;;;5088541;28;20273;-82
2023/06/25 06:15:41;;;;;;;17.53;15.73;;;;;;;;;;5084273;28;20177;-82
2023/06/25 06:18:07;;;;;;;17.97;16.07;;;;;;;;;;5066026;28;20274;-82
2023/06/25 06:20:33;;;;;;;17.23;15.20;;;;;;;;;;5070862;28;20209;-82
2023/06/25 06:23:01;;;;;;;19.07;15.63;;;;;;;;;;5064714;28;20247;-82
2023/06/25 06:25:27;;;;;;;18.53;15.53;;;;;;;;;;5099958;28;20260;-82
2023/06/25 06:27:54;;;;;;;17.27;15.43;;;;;;;;;;5071131;28;20197;-82
2023/06/25 06:30:21;;;;;;;17.40;15.63;;;;;;;;;;5069073;28;20278;-82
2023/06/25 06:32:47;;;;;;;17.43;15.50;;;;;;;;;;5073156;28;20176;-82
2023/06/25 06:35:13;;;;;;;19.07;15.93;;;;;;;;;;5062847;28;20179;-82
2023/06/25 06:37:39;;;;;;;16.97;15.20;;;;;;;;;;5076619;28;20209;-82
2023/06/25 06:40:05;;;;;;;20.87;15.37;;;;;;;;;;5092830;28;20178;-83
2023/06/25 06:42:33;;;;;;;17.83;15.90;;;;;;;;;;5073469;28;20331;-82
2023/06/25 06:44:59;;;;;;;18.47;16.67;;;;;;;;;;5093035;28;20182;-82
2023/06/25 06:47:25;;;;;;;17.73;15.87;;;;;;;;;;5091489;28;20224;-81
2023/06/25 06:49:53;;;;;;;19.03;16.87;;;;;;;;;;5091755;28;20211;-81
2023/06/25 06:52:22;;;;;;;18.87;16.97;;;;;;;;;;5087986;28;20183;-81
2023/06/25 06:54:48;;;;;;;19.03;17.13;;;;;;;;;;5085867;28;20182;-81
2023/06/25 06:57:14;;;;;;;18.63;16.80;;;;;;;;;;5070814;28;20183;-81
2023/06/25 06:59:40;;;;;;;19.03;16.43;;;;;;;;;;5067020;28;20281;-81
2023/06/25 07:02:06;;;;;;;20.77;18.50;;;;;;;;;;5092215;28;20186;-81
2023/06/25 07:04:32;;;;;;;19.10;17.20;;;;;;;;;;5078430;28;20186;-80
2023/06/25 07:06:58;;;;;;;20.27;17.57;;;;;;;;;;5070450;28;20251;-81
2023/06/25 07:09:25;;;;;;;19.03;17.13;;;;;;;;;;5075678;28;20259;-81
2023/06/25 07:11:51;;;;;;;20.67;18.47;;;;;;;;;;5100393;28;20183;-80
2023/06/25 07:14:17;;;;;;;19.42;17.42;;;;;;;;;;5086082;28;20201;-81
2023/06/25 07:16:44;;;;;;;19.20;17.10;;;;;;;;;;5109458;28;20177;-80
2023/06/25 07:19:10;;;;;;;16.05;14.48;;;;;;;;;;5108768;28;20238;-81
2023/06/25 07:21:37;;;;;;;19.17;17.17;;;;;;;;;;5089463;28;20201;-81
2023/06/25 07:24:03;;;;;;;20.58;18.48;;;;;;;;;;5066750;28;20414;-81
2023/06/25 07:26:29;;;;;;;18.75;16.95;;;;;;;;;;5063897;28;20186;-81
2023/06/25 07:28:55;;;;;;;18.23;16.33;;;;;;;;;;5073754;28;20190;-81
2023/06/25 07:31:21;;;;;;;19.20;17.08;;;;;;;;;;5094260;28;20173;-81
2023/06/25 07:33:47;;;;;;;17.52;15.85;;;;;;;;;;5075260;28;20175;-80
2023/06/25 07:36:13;;;;;;;19.02;17.17;;;;;;;;;;5059107;28;20213;-80
2023/06/25 07:38:39;;;;;;;17.75;15.95;;;;;;;;;;5059210;28;20282;-80
2023/06/25 07:41:05;;;;;;;18.90;16.92;;;;;;;;;;5075462;28;20178;-81
2023/06/25 07:43:31;;;;;;;15.75;14.15;;;;;;;;;;5059273;28;20182;-81
2023/06/25 07:45:58;;;;;;;15.93;14.38;;;;;;;;;;5075323;28;20178;-81
2023/06/25 07:48:24;;;;;;;18.08;15.85;;;;;;;;;;5060541;28;20194;-81
2023/06/25 07:50:51;;;;;;;15.50;14.00;;;;;;;;;;5095666;28;20201;-81
2023/06/25 07:53:18;;;;;;;14.88;13.38;;;;;;;;;;5075157;28;20183;-81
2023/06/25 07:55:45;;;;;;;14.85;12.63;;;;;;;;;;5090919;28;20174;-81
2023/06/25 07:58:11;;;;;;;12.77;11.57;;;;;;;;;;5075463;28;20179;-81
2023/06/25 08:00:37;;;;;;;13.82;12.52;;;;;;;;;;5087859;28;20182;-81
2023/06/25 08:03:03;;;;;;;14.05;11.38;;;;;;;;;;5094605;28;20293;-82
2023/06/25 08:05:29;;;;;;;12.52;10.88;;;;;;;;;;5098023;28;20171;-82
2023/06/25 08:07:58;;;;;;;13.80;12.15;;;;;;;;;;5082404;28;20328;-82
2023/06/25 08:10:24;;;;;;;11.55;10.45;;;;;;;;;;5098719;28;20210;-81
2023/06/25 08:12:51;;;;;;;14.20;11.30;;;;;;;;;;5082867;28;20177;-81
2023/06/25 08:15:17;;;;;;;12.95;11.75;;;;;;;;;;5083096;28;20174;-82
2023/06/25 08:17:43;;;;;;;13.60;12.35;;;;;;;;;;5078979;28;20201;-82
2023/06/25 08:20:09;;;;;;;10.57;9.48;;;;;;;;;;5088393;28;20174;-82
2023/06/25 08:22:35;;;;;;;14.10;11.48;;;;;;;;;;5082511;28;20209;-81
2023/06/25 08:25:06;;;;;;;13.30;10.88;;;;;;;;;;5099271;28;20174;-81
2023/06/25 08:27:32;;;;;;;10.90;9.80;;;;;;;;;;5099189;28;20185;-81
2023/06/25 08:29:58;;;;;;;13.00;10.18;;;;;;;;;;5082452;28;20206;-81
2023/06/25 08:32:24;;;;;;;10.43;9.32;;;;;;;;;;5082148;28;20178;-83
2023/06/25 08:34:50;;;;;;;11.68;10.50;;;;;;;;;;5082452;28;20196;-81
2023/06/25 08:37:16;;;;;;;9.70;8.70;;;;;;;;;;5098229;28;20201;-81
2023/06/25 08:39:42;;;;;;;9.80;8.80;;;;;;;;;;5098873;28;20181;-81
2023/06/25 08:42:08;;;;;;;12.82;9.07;;;;;;;;;;5081755;28;20178;-83
2023/06/25 08:44:34;;;;;;;13.38;9.45;;;;;;;;;;5077360;28;20198;-81
2023/06/25 08:47:01;;;;;;;10.20;9.18;;;;;;;;;;5095473;28;20267;-83
2023/06/25 08:49:30;;;;;;;14.02;8.55;;;;;;;;;;5094416;28;20198;-86
2023/06/25 08:51:57;;;;;;;10.63;9.63;;;;;;;;;;5098789;28;20227;-81
2023/06/25 08:54:23;;;;;;;12.40;9.32;;;;;;;;;;5098494;28;20166;-82
2023/06/25 08:56:49;;;;;;;10.32;8.50;;;;;;;;;;5081752;28;20182;-82
2023/06/25 08:59:15;;;;;;;9.63;8.70;;;;;;;;;;5081598;28;20178;-82
2023/06/25 09:01:41;;;;;;;8.60;7.70;;;;;;;;;;5098034;28;20182;-81
2023/06/25 09:04:07;;;;;;;7.75;6.95;;;;;;;;;;5098410;28;20185;-82
2023/06/25 09:06:40;;;;;;;7.43;6.30;;;;;;;;;;5082031;28;20223;-82
2023/06/25 09:09:06;;;;;;;7.80;5.80;;;;;;;;;;5097453;28;20272;-82
2023/06/25 09:11:32;;;;;;;8.15;6.70;;;;;;;;;;5097707;28;20202;-82
2023/06/25 09:14:00;;;;;;;9.00;6.75;;;;;;;;;;5081525;28;20185;-83
2023/06/25 09:16:27;;;;;;;8.73;7.38;;;;;;;;;;5097980;28;20403;-83
2023/06/25 09:18:53;;;;;;;7.90;7.10;;;;;;;;;;5080651;28;20174;-82
2023/06/25 09:21:19;;;;;;;8.20;6.63;;;;;;;;;;5097435;28;20222;-82
2023/06/25 09:23:51;;;;;;;7.85;7.13;;;;;;;;;;5081062;28;20170;-83
2023/06/25 09:26:18;;;;;;;10.40;6.78;;;;;;;;;;5097631;28;20170;-82
2023/06/25 09:28:48;;;;;;;10.55;7.00;;;;;;;;;;5097292;28;20166;-84
2023/06/25 09:31:16;;;;;;;8.80;7.80;;;;;;;;;;5081316;28;20189;-83
2023/06/25 09:33:49;;;;;;;7.80;6.93;;;;;;;;;;5080914;28;20177;-82
2023/06/25 09:36:15;;;;;;;9.52;8.50;;;;;;;;;;5097921;28;20169;-82
2023/06/25 09:38:45;;;;;;;9.13;8.32;;;;;;;;;;5080356;28;20255;-82
2023/06/25 09:41:15;;;;;;;8.75;7.95;;;;;;;;;;5080773;28;20186;-82
2023/06/25 09:43:42;;;;;;;9.63;8.40;;;;;;;;;;5097726;28;20173;-82
2023/06/25 09:46:09;;;;;;;10.52;8.35;;;;;;;;;;5097544;28;20199;-83
2023/06/25 09:48:36;;;;;;;7.53;6.85;;;;;;;;;;5078823;28;20259;-83
2023/06/25 09:51:06;;;;;;;8.57;7.65;;;;;;;;;;5095693;28;20194;-82
2023/06/25 09:53:36;;;;;;;10.13;8.73;;;;;;;;;;5097426;28;20182;-82
2023/06/25 09:56:03;;;;;;;11.23;8.57;;;;;;;;;;5097042;28;20216;-86
2023/06/25 09:58:30;;;;;;;11.20;8.80;;;;;;;;;;5080974;28;20174;-85
2023/06/25 10:00:56;;;;;;;10.40;8.75;;;;;;;;;;5095936;28;20265;-85
2023/06/25 10:03:22;;;;;;;13.48;9.73;;;;;;;;;;5078632;28;20178;-86
2023/06/25 10:05:51;;;;;;;11.10;9.98;;;;;;;;;;5095246;28;20174;-86
2023/06/25 10:08:18;;;;;;;9.77;8.85;;;;;;;;;;5079406;28;20234;-86
2023/06/25 10:10:55;;;;;;;11.57;9.85;;;;;;;;;;5095684;28;20208;-86
2023/06/25 10:13:22;;;;;;;9.63;8.60;;;;;;;;;;5095991;28;20261;-86
2023/06/25 10:15:48;;;;;;;12.10;10.27;;;;;;;;;;5096647;28;20204;-86
2023/06/25 10:18:22;;;;;;;10.75;9.75;;;;;;;;;;5096810;28;20173;-85
2023/06/25 10:20:48;;;;;;;11.48;10.05;;;;;;;;;;5097028;28;20185;-86
2023/06/25 10:23:14;;;;;;;12.82;10.05;;;;;;;;;;5095781;28;20198;-86
2023/06/25 10:25:41;;;;;;;12.65;11.45;;;;;;;;;;5079947;28;20185;-86
2023/06/25 10:28:10;;;;;;;23.95;9.40;;;;;;;;;;5093943;28;20207;-87
2023/06/25 10:30:46;;;;;;;16.27;10.20;;;;;;;;;;5094918;28;20429;-86
2023/06/25 10:33:19;;;;;;;10.60;9.10;;;;;;;;;;5094738;28;20186;-86
2023/06/25 10:35:55;;;;;;;9.65;7.70;;;;;;;;;;5080248;28;20178;-86
2023/06/25 10:38:21;;;;;;;8.98;7.40;;;;;;;;;;5096931;28;20165;-87
2023/06/25 10:40:47;;;;;;;6.88;6.22;;;;;;;;;;5080994;28;20182;-87
2023/06/25 10:43:20;;;;;;;7.18;6.00;;;;;;;;;;5076529;28;20177;-87
2023/06/25 10:45:50;;;;;;;6.80;6.10;;;;;;;;;;5076749;28;20178;-87
2023/06/25 10:48:16;;;;;;;6.07;5.53;;;;;;;;;;5084705;28;20216;-87
2023/06/25 10:50:42;;;;;;;6.93;5.68;;;;;;;;;;5086154;28;20223;-86
2023/06/25 10:53:11;;;;;;;7.57;6.35;;;;;;;;;;5079925;28;20177;-87
2023/06/25 10:55:38;;;;;;;7.95;6.15;;;;;;;;;;5086154;28;20212;-86
2023/06/25 10:58:04;;;;;;;6.55;5.95;;;;;;;;;;5096698;28;20174;-87
2023/06/25 11:00:31;;;;;;;6.72;5.97;;;;;;;;;;5108726;28;20180;-87
2023/06/25 11:02:57;;;;;;;8.63;6.22;;;;;;;;;;5096229;28;20174;-87
2023/06/25 11:05:34;;;;;;;6.97;5.97;;;;;;;;;;5103784;28;20173;-87
2023/06/25 11:08:00;;;;;;;6.63;5.88;;;;;;;;;;5117869;28;20217;-87
2023/06/25 11:10:27;;;;;;;10.07;6.10;;;;;;;;;;5079796;28;20272;-87
2023/06/25 11:12:55;;;;;;;7.47;6.72;;;;;;;;;;5096079;28;20224;-88
2023/06/25 11:15:21;;;;;;;9.43;6.35;;;;;;;;;;5064895;28;20175;-87
2023/06/25 11:17:51;;;;;;;6.57;5.82;;;;;;;;;;5074281;28;20182;-86
2023/06/25 11:20:17;;;;;;;6.50;5.82;;;;;;;;;;5093279;28;20204;-88
2023/06/25 11:22:43;;;;;;;6.68;5.78;;;;;;;;;;5082879;28;20194;-87
2023/06/25 11:25:11;;;;;;;6.85;6.15;;;;;;;;;;5075752;28;20178;-88
2023/06/25 11:27:37;;;;;;;6.78;6.18;;;;;;;;;;5075819;28;20256;-87
2023/06/25 11:30:04;;;;;;;7.45;6.45;;;;;;;;;;5066892;28;20221;-86
2023/06/25 11:32:30;;;;;;;6.45;5.85;;;;;;;;;;5095846;28;20176;-86
2023/06/25 11:34:57;;;;;;;5.80;5.20;;;;;;;;;;5081196;28;20182;-86
2023/06/25 11:37:23;;;;;;;7.97;6.03;;;;;;;;;;5099592;28;20174;-86
2023/06/25 11:39:50;;;;;;;5.95;5.43;;;;;;;;;;5099967;28;20185;-86
2023/06/25 11:42:17;;;;;;;6.20;5.60;;;;;;;;;;5099814;28;20170;-88
2023/06/25 11:44:44;;;;;;;8.48;5.63;;;;;;;;;;5099754;28;20174;-88
2023/06/25 11:47:11;;;;;;;5.80;5.18;;;;;;;;;;5082775;28;20220;-87
2023/06/25 11:49:38;;;;;;;7.60;6.10;;;;;;;;;;5099438;28;20198;-87
2023/06/25 11:52:04;;;;;;;6.40;5.20;;;;;;;;;;5082702;28;20213;-87
2023/06/25 11:54:30;;;;;;;6.97;5.22;;;;;;;;;;5099745;28;20176;-87
2023/06/25 11:56:56;;;;;;;5.47;4.97;;;;;;;;;;5082787;28;20209;-87
2023/06/25 11:59:22;;;;;;;6.80;5.22;;;;;;;;;;5102197;27;20170;-87
2023/06/25 12:01:48;;;;;;;5.07;4.68;;;;;;;;;;5137036;27;20176;-87
2023/06/25 12:04:15;;;;;;;5.50;5.00;;;;;;;;;;5127367;27;20196;-87
2023/06/25 12:06:41;;;;;;;7.35;5.45;;;;;;;;;;5099304;28;20174;-87
2023/06/25 12:09:07;;;;;;;5.25;4.85;;;;;;;;;;5082217;28;20237;-86
2023/06/25 12:11:33;;;;;;;6.57;5.50;;;;;;;;;;5084687;27;20185;-87
2023/06/25 12:13:59;;;;;;;5.90;5.35;;;;;;;;;;5102049;27;20268;-87
2023/06/25 12:16:25;;;;;;;6.03;5.40;;;;;;;;;;5082337;28;20204;-88
2023/06/25 12:18:51;;;;;;;6.05;5.43;;;;;;;;;;5099002;28;20166;-86
2023/06/25 12:21:17;;;;;;;6.03;5.40;;;;;;;;;;5092170;28;20186;-87
2023/06/25 12:23:43;;;;;;;5.60;5.10;;;;;;;;;;5082833;28;20181;-88
2023/06/25 12:26:09;;;;;;;5.60;5.15;;;;;;;;;;5082724;28;20177;-87
2023/06/25 12:28:35;;;;;;;5.47;5.07;;;;;;;;;;5099514;28;20189;-88
2023/06/25 12:31:01;;;;;;;5.68;5.15;;;;;;;;;;5099862;28;20224;-88
2023/06/25 12:33:27;;;;;;;6.53;5.03;;;;;;;;;;5082297;28;20182;-88
2023/06/25 12:35:53;;;;;;;7.35;5.30;;;;;;;;;;5081926;28;20265;-87
2023/06/25 12:38:19;;;;;;;5.50;5.10;;;;;;;;;;5092553;28;20310;-88
2023/06/25 12:40:46;;;;;;;5.70;5.13;;;;;;;;;;5079725;28;20210;-88
2023/06/25 12:43:12;;;;;;;6.15;4.97;;;;;;;;;;5098017;28;20182;-88
2023/06/25 12:45:38;;;;;;;5.20;4.80;;;;;;;;;;5132745;27;20166;-88
2023/06/25 12:48:04;;;;;;;7.47;5.70;;;;;;;;;;5096214;28;20265;-88
2023/06/25 12:50:30;;;;;;;6.97;5.75;;;;;;;;;;5086838;28;20203;-87
2023/06/25 12:52:56;;;;;;;5.93;5.03;;;;;;;;;;5083197;28;20178;-88
2023/06/25 12:55:23;;;;;;;6.10;5.57;;;;;;;;;;5081034;28;20255;-87
2023/06/25 12:57:49;;;;;;;5.97;5.40;;;;;;;;;;5080318;28;20428;-87
2023/06/25 13:00:15;;;;;;;5.72;5.05;;;;;;;;;;5078730;28;20190;-87
2023/06/25 13:02:41;;;;;;;6.68;5.50;;;;;;;;;;5070390;28;20426;-87
2023/06/25 13:05:07;;;;;;;5.60;5.20;;;;;;;;;;5087615;28;20185;-87
2023/06/25 13:07:33;;;;;;;5.80;4.93;;;;;;;;;;5081012;28;20190;-87
2023/06/25 13:09:59;;;;;;;5.85;5.35;;;;;;;;;;5097777;28;20210;-88
2023/06/25 13:12:25;;;;;;;5.70;5.20;;;;;;;;;;5077331;28;20190;-89
2023/06/25 13:14:51;;;;;;;5.13;4.57;;;;;;;;;;5093437;28;20182;-88
2023/06/25 13:17:18;;;;;;;6.43;5.50;;;;;;;;;;5073409;28;20186;-89
2023/06/25 13:19:44;;;;;;;5.90;5.40;;;;;;;;;;5077984;28;20490;-88
2023/06/25 13:22:10;;;;;;;5.68;5.18;;;;;;;;;;5081778;28;20198;-88
2023/06/25 13:24:36;;;;;;;5.35;4.95;;;;;;;;;;5096576;28;20177;-89
2023/06/25 13:27:03;;;;;;;5.60;5.10;;;;;;;;;;5076825;28;20183;-88
2023/06/25 13:29:29;;;;;;;5.38;4.95;;;;;;;;;;5089905;28;20216;-88
2023/06/25 13:31:55;;;;;;;6.07;5.13;;;;;;;;;;5097501;28;20196;-88
2023/06/25 13:34:21;;;;;;;5.40;4.93;;;;;;;;;;5077730;28;20277;-88
2023/06/25 13:36:47;;;;;;;5.65;5.15;;;;;;;;;;5081275;28;20207;-87
2023/06/25 13:39:13;;;;;;;5.88;4.95;;;;;;;;;;5075131;28;20190;-87
2023/06/25 13:41:39;;;;;;;5.95;5.38;;;;;;;;;;5088884;28;20180;-87
2023/06/25 13:44:05;;;;;;;7.10;4.90;;;;;;;;;;5079877;28;20209;-87
2023/06/25 13:46:31;;;;;;;5.90;5.30;;;;;;;;;;5080491;28;20213;-87
2023/06/25 13:48:57;;;;;;;5.63;5.03;;;;;;;;;;5097148;28;20174;-87
2023/06/25 13:51:23;;;;;;;5.53;5.03;;;;;;;;;;5080706;28;20184;-87
2023/06/25 13:53:49;;;;;;;5.72;5.22;;;;;;;;;;5080532;28;20196;-86
2023/06/25 13:56:18;;;;;;;6.15;5.55;;;;;;;;;;5080316;28;20186;-87
2023/06/25 13:58:44;;;;;;;5.85;5.35;;;;;;;;;;5080780;28;20174;-86
2023/06/25 14:01:10;;;;;;;6.07;5.47;;;;;;;;;;5096849;28;20182;-87
2023/06/25 14:03:37;;;;;;;7.13;5.68;;;;;;;;;;5080638;28;20201;-87
2023/06/25 14:06:03;;;;;;;6.28;5.70;;;;;;;;;;5078743;28;20185;-87
2023/06/25 14:08:29;;;;;;;5.50;5.05;;;;;;;;;;5095841;28;20217;-87
2023/06/25 14:10:55;;;;;;;6.05;5.45;;;;;;;;;;5096881;28;20482;-87
2023/06/25 14:13:21;;;;;;;5.90;5.40;;;;;;;;;;5091645;28;20264;-87
2023/06/25 14:15:47;;;;;;;8.30;5.20;;;;;;;;;;5079998;28;20174;-87
2023/06/25 14:18:14;;;;;;;6.22;5.63;;;;;;;;;;5096881;28;20191;-86
2023/06/25 14:20:40;;;;;;;6.03;5.53;;;;;;;;;;5079728;28;20201;-86
2023/06/25 14:23:06;;;;;;;5.85;5.40;;;;;;;;;;5096205;28;20254;-86